Time;durP1;ratioP1;P1;durP2;ratioP2;P2;SDS_P1;SDS_P2;PMS_P1;PMS_P2;Temp;Humidity;BMP_temperature;BMP_pressure;BME280_temperature;BME280_humidity;BME280_pressure;Samples;Min_cycle;Max_cycle;Signal;HPM_P1;HPM_P2
2022/11/12 00:00:09;;;;;;;33.10;20.63;;;;;;;11.32;92.02;96214.69;5072127;28;20484;-76
2022/11/12 00:02:36;;;;;;;34.83;19.70;;;;;;;11.34;91.11;96208.38;5071913;28;20454;-75
2022/11/12 00:05:02;;;;;;;31.80;20.33;;;;;;;11.35;92.29;96219.72;5052960;28;20444;-76
2022/11/12 00:07:29;;;;;;;37.07;22.50;;;;;;;11.32;92.28;96202.38;5071668;28;20458;-75
2022/11/12 00:09:56;;;;;;;28.73;21.00;;;;;;;11.32;92.13;96202.38;5072053;28;20504;-76
2022/11/12 00:12:24;;;;;;;34.33;21.77;;;;;;;11.36;92.10;96200.41;5072082;28;20452;-75
2022/11/12 00:14:51;;;;;;;34.30;22.50;;;;;;;11.37;92.48;96194.19;5071740;28;20448;-75
2022/11/12 00:17:17;;;;;;;33.80;21.50;;;;;;;11.22;91.85;96192.56;5071833;28;20473;-75
2022/11/12 00:19:44;;;;;;;32.90;20.80;;;;;;;11.22;92.22;96201.28;5071532;28;20498;-75
2022/11/12 00:22:11;;;;;;;31.50;20.00;;;;;;;11.24;92.90;96201.19;5052994;28;20449;-76
2022/11/12 00:24:37;;;;;;;29.70;18.13;;;;;;;11.25;92.71;96198.47;5071815;28;20490;-75
2022/11/12 00:27:04;;;;;;;36.30;20.20;;;;;;;11.28;92.31;96206.16;5071891;28;20447;-76
2022/11/12 00:29:33;;;;;;;34.00;20.67;;;;;;;11.31;93.14;96210.38;5071790;28;20950;-76
2022/11/12 00:31:59;;;;;;;29.50;20.37;;;;;;;11.34;92.10;96211.00;5072013;28;20529;-76
2022/11/12 00:34:26;;;;;;;34.53;20.87;;;;;;;11.36;92.55;96205.66;5036329;28;20451;-75
2022/11/12 00:36:53;;;;;;;33.67;21.83;;;;;;;11.36;92.94;96210.91;5072131;28;20463;-75
2022/11/12 00:39:19;;;;;;;27.23;18.07;;;;;;;11.42;93.36;96215.75;5071619;28;20514;-76
2022/11/12 00:41:46;;;;;;;31.80;19.30;;;;;;;11.40;93.84;96215.00;5071858;28;20448;-76
2022/11/12 00:44:13;;;;;;;28.20;18.43;;;;;;;11.36;93.40;96198.59;5071578;28;20463;-75
2022/11/12 00:46:41;;;;;;;30.53;17.93;;;;;;;11.36;92.77;96208.28;5071350;28;20441;-75
2022/11/12 00:49:08;;;;;;;27.97;18.57;;;;;;;11.34;93.50;96199.66;5071317;28;20856;-76
2022/11/12 00:51:36;;;;;;;33.80;18.73;;;;;;;11.35;94.25;96199.56;5071195;28;20448;-77
2022/11/12 00:54:02;;;;;;;36.37;20.30;;;;;;;11.38;94.56;96204.59;5071648;28;20541;-75
2022/11/12 00:56:29;;;;;;;29.10;18.27;;;;;;;11.42;93.89;96205.22;5071435;28;20443;-76
2022/11/12 00:58:57;;;;;;;29.10;17.77;;;;;;;11.43;94.38;96201.66;5071393;28;20449;-76
2022/11/12 01:01:25;;;;;;;27.57;18.63;;;;;;;11.46;94.59;96199.66;5071100;28;20491;-75
2022/11/12 01:03:54;;;;;;;29.77;19.47;;;;;;;11.49;94.22;96188.09;5071464;28;20451;-76
2022/11/12 01:06:23;;;;;;;31.17;18.40;;;;;;;11.52;94.66;96177.38;5071350;28;20452;-76
2022/11/12 01:08:50;;;;;;;33.83;20.07;;;;;;;11.51;94.40;96170.44;5071416;28;20443;-75
2022/11/12 01:11:20;;;;;;;29.30;18.47;;;;;;;11.49;94.93;96175.78;5071081;28;20934;-75
2022/11/12 01:13:52;;;;;;;29.63;19.23;;;;;;;11.47;93.97;96175.06;5071330;28;20493;-76
2022/11/12 01:16:21;;;;;;;37.87;19.10;;;;;;;11.47;94.17;96180.31;5073001;28;20508;-76
2022/11/12 01:18:54;;;;;;;28.63;18.07;;;;;;;11.46;94.48;96178.63;5039439;28;20931;-76
2022/11/12 01:21:22;;;;;;;30.23;20.03;;;;;;;11.47;93.66;96184.72;5074714;28;20578;-75
2022/11/12 01:23:49;;;;;;;32.57;18.40;;;;;;;11.47;94.11;96180.31;5074923;28;20448;-75
2022/11/12 01:26:18;;;;;;;32.43;20.60;;;;;;;11.43;94.29;96184.09;5075022;28;20926;-76
2022/11/12 01:28:46;;;;;;;34.10;20.80;;;;;;;11.39;94.95;96182.63;5074561;28;20447;-76
2022/11/12 01:31:15;;;;;;;34.63;19.73;;;;;;;11.31;95.63;96181.47;5074578;28;20451;-76
2022/11/12 01:33:43;;;;;;;35.73;23.17;;;;;;;11.30;95.97;96179.78;5074814;28;20859;-76
2022/11/12 01:36:12;;;;;;;37.70;23.17;;;;;;;11.26;95.87;96170.41;5074742;28;20455;-75
2022/11/12 01:38:40;;;;;;;33.37;21.20;;;;;;;11.30;96.06;96171.91;5074460;28;20439;-75
2022/11/12 01:41:09;;;;;;;35.73;20.90;;;;;;;11.26;95.95;96165.16;5074250;28;20480;-76
2022/11/12 01:43:36;;;;;;;40.77;23.80;;;;;;;11.25;95.33;96166.09;5074581;28;20451;-76
2022/11/12 01:46:05;;;;;;;38.00;22.73;;;;;;;11.08;94.12;96162.81;5074222;28;20446;-75
2022/11/12 01:48:37;;;;;;;40.03;24.83;;;;;;;10.95;94.58;96161.94;5074293;28;20448;-75
2022/11/12 01:51:06;;;;;;;32.47;21.90;;;;;;;10.88;94.62;96152.78;5074124;28;20445;-76
2022/11/12 01:53:39;;;;;;;45.00;26.03;;;;;;;10.82;94.61;96158.44;5074336;28;20548;-76
2022/11/12 01:56:07;;;;;;;38.60;22.60;;;;;;;10.80;95.19;96168.19;5074329;28;20438;-75
2022/11/12 01:58:36;;;;;;;36.83;22.37;;;;;;;10.79;95.19;96166.53;5055428;28;20516;-75
2022/11/12 02:01:03;;;;;;;41.50;22.80;;;;;;;10.79;95.30;96161.28;5074297;28;20483;-76
2022/11/12 02:03:30;;;;;;;37.27;22.53;;;;;;;10.84;95.10;96157.41;5073948;28;20515;-75
2022/11/12 02:06:00;;;;;;;41.13;20.23;;;;;;;10.78;94.76;96155.19;5073986;28;20455;-76
2022/11/12 02:08:29;;;;;;;89.43;65.17;;;;;;;10.67;94.85;96155.00;5073993;28;20458;-75
2022/11/12 02:10:58;;;;;;;96.13;69.33;;;;;;;10.70;95.28;96167.13;5073824;28;20458;-76
2022/11/12 02:16:10;;;;;;;94.90;60.60;;;;;;;10.74;95.81;96158.94;5073824;28;20431;-75
2022/11/12 02:18:37;;;;;;;62.40;41.27;;;;;;;10.78;96.14;96162.22;5054796;28;20434;-76
2022/11/12 02:21:07;;;;;;;40.23;23.67;;;;;;;10.64;96.25;96170.13;5073848;28;20540;-76
2022/11/12 02:23:36;;;;;;;44.90;29.00;;;;;;;10.67;96.53;96168.13;5072965;28;20435;-75
2022/11/12 02:26:03;;;;;;;51.67;33.77;;;;;;;10.77;95.88;96163.16;5073349;28;20926;-75
2022/11/12 02:28:32;;;;;;;43.97;28.60;;;;;;;10.81;95.37;96165.47;5038275;28;20449;-75
2022/11/12 02:30:59;;;;;;;39.07;26.97;;;;;;;10.85;96.07;96161.69;5073506;28;20453;-75
2022/11/12 02:33:25;;;;;;;37.53;22.30;;;;;;;10.90;95.93;96169.28;5073798;28;20450;-76
2022/11/12 02:35:52;;;;;;;32.87;21.77;;;;;;;10.92;96.29;96164.75;5073456;28;20465;-75
2022/11/12 02:38:19;;;;;;;39.60;22.67;;;;;;;10.92;95.06;96167.38;5054593;28;20461;-75
2022/11/12 02:40:47;;;;;;;34.77;22.27;;;;;;;10.83;95.11;96160.97;5073098;28;20483;-75
2022/11/12 02:43:14;;;;;;;29.97;18.20;;;;;;;10.78;96.03;96159.59;5073207;28;20445;-75
2022/11/12 02:45:41;;;;;;;39.07;23.73;;;;;;;10.76;95.64;96158.84;5072990;28;20949;-75
2022/11/12 02:48:07;;;;;;;37.90;23.73;;;;;;;10.61;96.02;96157.19;5073419;28;20455;-75
2022/11/12 02:50:34;;;;;;;54.40;33.23;;;;;;;10.60;96.75;96158.97;5073141;28;20454;-76
2022/11/12 02:53:01;;;;;;;53.00;33.03;;;;;;;10.63;97.20;96157.94;5072867;28;20536;-76
2022/11/12 02:55:28;;;;;;;36.57;24.73;;;;;;;10.64;96.88;96162.25;5073250;28;20497;-75
2022/11/12 02:57:59;;;;;;;37.27;23.40;;;;;;;10.66;95.51;96160.38;5072660;28;20450;-75
2022/11/12 03:00:26;;;;;;;28.30;19.50;;;;;;;10.71;96.07;96156.53;5072785;28;20490;-75
2022/11/12 03:02:58;;;;;;;41.30;23.47;;;;;;;10.76;95.38;96158.84;5073212;28;20443;-75
2022/11/12 03:05:26;;;;;;;31.20;19.47;;;;;;;10.76;94.75;96166.72;5072683;28;20531;-76
2022/11/12 03:07:58;;;;;;;29.50;18.60;;;;;;;10.72;94.28;96163.47;5072607;28;20937;-76
2022/11/12 03:10:25;;;;;;;28.00;18.00;;;;;;;10.67;93.80;96159.41;5072637;28;21021;-76
2022/11/12 03:12:51;;;;;;;32.37;18.07;;;;;;;10.67;93.50;96154.16;5072963;28;20618;-75
2022/11/12 03:15:20;;;;;;;30.20;19.70;;;;;;;10.68;93.18;96163.72;5037428;28;20501;-76
2022/11/12 03:17:47;;;;;;;34.60;20.07;;;;;;;10.71;92.94;96158.31;5071952;28;20496;-75
2022/11/12 03:20:14;;;;;;;31.10;18.60;;;;;;;10.72;93.34;96154.75;5072668;28;20447;-76
2022/11/12 03:22:41;;;;;;;32.90;21.40;;;;;;;10.74;93.50;96152.84;5053859;28;20498;-75
2022/11/12 03:25:09;;;;;;;37.73;20.57;;;;;;;10.74;93.42;96152.84;5072591;28;20458;-75
2022/11/12 03:27:36;;;;;;;36.67;19.77;;;;;;;10.65;92.76;96163.94;5072649;28;20467;-75
2022/11/12 03:30:02;;;;;;;30.93;21.13;;;;;;;10.61;92.97;96165.06;5072651;28;20449;-75
2022/11/12 03:32:30;;;;;;;31.97;19.43;;;;;;;10.58;93.55;96160.03;5037014;28;20454;-75
2022/11/12 03:34:57;;;;;;;39.20;22.00;;;;;;;10.53;93.73;96166.41;5072341;28;20851;-76
2022/11/12 03:37:24;;;;;;;40.00;22.67;;;;;;;10.51;93.85;96165.69;5072223;28;20933;-75
2022/11/12 03:39:51;;;;;;;32.90;19.03;;;;;;;10.49;93.39;96162.31;5071662;28;20790;-76
2022/11/12 03:42:17;;;;;;;33.73;19.93;;;;;;;10.46;93.29;96159.88;5072325;28;20868;-76
2022/11/12 03:44:44;;;;;;;35.30;20.77;;;;;;;10.42;91.95;96163.66;5072164;28;20446;-76
2022/11/12 03:47:11;;;;;;;32.53;20.97;;;;;;;10.18;92.49;96165.16;5072544;28;20442;-76
2022/11/12 03:49:39;;;;;;;36.20;20.53;;;;;;;10.18;93.91;96165.16;5072108;28;20473;-76
2022/11/12 03:52:06;;;;;;;36.20;22.27;;;;;;;10.07;93.03;96167.59;5072068;28;20702;-75
2022/11/12 03:54:33;;;;;;;33.63;20.33;;;;;;;9.96;93.41;96175.31;5071609;28;20880;-76
2022/11/12 03:56:59;;;;;;;32.70;19.30;;;;;;;9.90;93.88;96174.75;5072073;28;20921;-75
2022/11/12 03:59:26;;;;;;;35.73;20.47;;;;;;;9.89;93.80;96178.31;5072239;28;20537;-75
2022/11/12 04:01:53;;;;;;;33.23;19.63;;;;;;;9.88;94.03;96170.53;5071749;28;20485;-75
2022/11/12 04:04:20;;;;;;;27.90;18.77;;;;;;;9.88;93.36;96175.78;5072036;28;20447;-75
2022/11/12 04:09:32;;;;;;;27.90;18.70;;;;;;;9.85;93.28;96166.31;5068870;28;20540;-75
2022/11/12 04:13:26;;;;;;;31.40;17.00;;;;;;;9.83;92.74;96165.56;5066836;28;20468;-75
2022/11/12 04:14:45;;;;;;;30.90;21.07;;;;;;;9.74;93.08;96171.38;5041335;28;20438;-75
2022/11/12 04:22:41;;;;;;;34.20;19.37;;;;;;;9.64;93.11;96162.38;5051619;28;20484;-75
2022/11/12 04:27:52;;;;;;;25.53;16.53;;;;;;;9.62;93.89;96148.53;5051695;28;20552;-76
2022/11/12 04:30:18;;;;;;;22.27;13.60;;;;;;;9.60;93.48;96145.16;5051750;28;20450;-75
2022/11/12 04:32:50;;;;;;;23.90;15.00;;;;;;;9.60;93.23;96147.78;5051503;28;20456;-75
2022/11/12 04:35:17;;;;;;;26.00;15.27;;;;;;;9.61;92.83;96146.84;5051369;28;20940;-76
2022/11/12 04:37:46;;;;;;;18.50;12.60;;;;;;;9.61;92.65;96149.47;5051734;28;20486;-76
2022/11/12 04:45:52;;;;;;;11.50;9.50;;;;;;;9.47;91.18;96158.16;4970727;28;20489;-75
2022/11/12 04:48:20;;;;;;;13.50;9.47;;;;;;;9.46;90.72;96168.72;4970378;28;20452;-75
2022/11/12 04:50:50;;;;;;;20.87;11.83;;;;;;;9.44;90.76;96168.81;4973068;28;20452;-75
2022/11/12 04:53:18;;;;;;;21.50;10.70;;;;;;;9.42;90.40;96164.59;4974013;28;20478;-75
2022/11/12 04:55:45;;;;;;;17.20;11.07;;;;;;;9.38;90.46;96160.50;4974044;28;20442;-75
2022/11/12 04:58:12;;;;;;;15.37;10.97;;;;;;;9.38;90.73;96168.34;4974076;28;20437;-75
2022/11/12 05:00:38;;;;;;;18.80;11.50;;;;;;;9.35;91.31;96164.13;4973678;28;20514;-76
2022/11/12 05:03:05;;;;;;;13.47;9.97;;;;;;;9.29;91.87;96167.97;4974004;28;20461;-75
2022/11/12 05:05:32;;;;;;;18.90;10.97;;;;;;;9.27;91.77;96176.84;4973808;28;20450;-75
2022/11/12 05:07:59;;;;;;;19.73;10.90;;;;;;;9.26;92.55;96175.16;4973882;28;20465;-75
2022/11/12 05:10:28;;;;;;;15.67;9.60;;;;;;;9.29;93.25;96181.06;4973696;28;20505;-75
2022/11/12 05:12:55;;;;;;;17.17;10.90;;;;;;;9.26;92.80;96180.41;4973773;28;20909;-76
2022/11/12 05:15:22;;;;;;;19.70;13.73;;;;;;;9.13;92.92;96185.50;4973707;28;20515;-75
2022/11/12 05:17:49;;;;;;;21.43;12.70;;;;;;;9.11;93.46;96186.53;4973566;28;20544;-74
2022/11/12 05:20:17;;;;;;;16.33;11.10;;;;;;;9.05;93.43;96187.72;4994662;28;20441;-75
2022/11/12 05:22:44;;;;;;;17.90;11.40;;;;;;;8.99;93.84;96188.94;5054517;28;20531;-75
2022/11/12 05:25:11;;;;;;;16.63;11.37;;;;;;;8.93;93.93;96186.66;5054597;28;20449;-75
2022/11/12 05:27:39;;;;;;;19.70;11.70;;;;;;;8.92;94.12;96191.97;5054917;28;20518;-75
2022/11/12 05:30:07;;;;;;;17.57;12.37;;;;;;;8.94;94.54;96188.34;5054652;28;20450;-76
2022/11/12 05:32:33;;;;;;;15.60;10.30;;;;;;;8.93;94.70;96193.66;5054672;28;20495;-76
2022/11/12 05:35:00;;;;;;;18.53;13.60;;;;;;;8.98;94.40;96196.88;5054974;28;20503;-75
2022/11/12 05:37:27;;;;;;;15.87;10.87;;;;;;;8.98;94.42;96196.88;5054435;28;20454;-76
2022/11/12 05:39:54;;;;;;;19.10;11.77;;;;;;;8.99;94.93;96194.16;5054492;28;20508;-75
2022/11/12 05:42:20;;;;;;;21.33;11.50;;;;;;;9.05;94.81;96198.22;5054224;28;20892;-75
2022/11/12 05:44:48;;;;;;;17.90;11.07;;;;;;;9.14;94.12;96191.59;5054287;28;20447;-74
2022/11/12 05:47:15;;;;;;;16.33;10.57;;;;;;;9.24;94.27;96197.97;5035487;28;20457;-75
2022/11/12 05:49:42;;;;;;;21.70;11.90;;;;;;;9.37;94.25;96198.09;5054386;28;20826;-75
2022/11/12 05:52:09;;;;;;;18.23;12.17;;;;;;;9.47;92.81;96201.84;5054240;28;20446;-75
2022/11/12 05:54:35;;;;;;;20.23;11.83;;;;;;;9.57;92.99;96200.38;5054178;28;20442;-75
2022/11/12 05:57:02;;;;;;;14.67;11.20;;;;;;;9.63;91.71;96197.41;5054162;28;20530;-75
2022/11/12 05:59:29;;;;;;;19.90;11.53;;;;;;;9.72;91.00;96209.94;5054023;28;20470;-76
2022/11/12 06:01:57;;;;;;;15.80;11.70;;;;;;;9.74;90.71;96202.81;5034394;28;20885;-75
2022/11/12 06:04:25;;;;;;;16.13;11.43;;;;;;;9.80;90.15;96207.69;5054627;28;20505;-76
2022/11/12 06:06:51;;;;;;;13.07;10.40;;;;;;;9.93;90.04;96218.28;5053831;28;20526;-75
2022/11/12 06:09:18;;;;;;;13.50;9.50;;;;;;;10.03;90.02;96218.56;5053978;28;20495;-75
2022/11/12 06:11:45;;;;;;;11.07;9.67;;;;;;;10.16;89.89;96224.75;5053829;28;20452;-75
2022/11/12 06:14:12;;;;;;;13.90;9.93;;;;;;;10.22;88.78;96219.16;5053739;28;20490;-75
2022/11/12 06:16:38;;;;;;;12.60;9.90;;;;;;;10.24;88.85;96222.50;5035094;28;20485;-76
2022/11/12 06:19:07;;;;;;;15.83;9.53;;;;;;;10.33;88.25;96223.72;5053596;28;20448;-75
2022/11/12 06:21:34;;;;;;;16.00;9.93;;;;;;;10.35;87.67;96227.09;5053398;28;20826;-75
2022/11/12 06:24:01;;;;;;;15.23;11.40;;;;;;;10.33;87.60;96231.59;5053567;28;20810;-75
2022/11/12 06:26:29;;;;;;;16.77;9.93;;;;;;;10.37;87.96;96227.81;5053467;28;20457;-76
2022/11/12 06:28:57;;;;;;;16.37;11.57;;;;;;;10.34;86.89;96223.63;5053604;28;20449;-76
2022/11/12 06:31:24;;;;;;;16.17;11.70;;;;;;;10.25;88.12;96229.44;5053402;28;20452;-76
2022/11/12 06:33:51;;;;;;;20.30;11.30;;;;;;;10.18;87.71;96217.63;5053228;28;20450;-75
2022/11/12 06:36:20;;;;;;;19.10;12.13;;;;;;;10.16;88.03;96225.59;5053653;28;20459;-75
2022/11/12 06:38:47;;;;;;;17.93;11.67;;;;;;;10.15;88.41;96223.06;5053313;28;20861;-75
2022/11/12 06:41:15;;;;;;;14.03;11.07;;;;;;;10.18;88.12;96228.97;5053136;28;20793;-75
2022/11/12 06:43:42;;;;;;;15.23;11.70;;;;;;;10.24;87.26;96233.00;5053245;28;20436;-75
2022/11/12 06:46:12;;;;;;;15.73;10.93;;;;;;;10.28;87.42;96236.28;5053016;28;20498;-75
2022/11/12 06:48:40;;;;;;;14.70;11.43;;;;;;;10.28;88.35;96242.38;5053482;28;20912;-75
2022/11/12 06:51:10;;;;;;;18.00;12.10;;;;;;;10.28;87.98;96244.16;5052953;28;20449;-75
2022/11/12 06:53:38;;;;;;;14.90;10.60;;;;;;;10.26;87.96;96236.38;5053041;28;20478;-74
2022/11/12 06:56:06;;;;;;;18.70;10.70;;;;;;;10.32;88.39;96236.00;5040720;28;20465;-75
2022/11/12 06:58:33;;;;;;;17.37;12.43;;;;;;;10.37;87.69;96233.91;5065379;28;20442;-75
2022/11/12 07:01:05;;;;;;;21.50;11.20;;;;;;;10.45;88.47;96230.84;5054073;28;20506;-77
2022/11/12 07:03:32;;;;;;;14.73;12.53;;;;;;;10.54;87.93;96228.47;5037343;28;20497;-77
2022/11/12 07:06:03;;;;;;;27.87;15.57;;;;;;;10.69;88.82;96233.66;5072864;28;20440;-77
2022/11/12 07:08:30;;;;;;;26.03;18.80;;;;;;;10.83;88.68;96231.03;5037312;28;20451;-77
2022/11/12 07:10:59;;;;;;;24.03;17.90;;;;;;;10.90;87.65;96227.03;5072906;28;20482;-75
2022/11/12 07:13:25;;;;;;;27.17;17.33;;;;;;;11.03;86.45;96225.31;5071355;28;20450;-75
2022/11/12 07:15:52;;;;;;;19.00;12.57;;;;;;;11.13;83.85;96236.91;5072660;28;20536;-77
2022/11/12 07:18:19;;;;;;;14.33;10.80;;;;;;;11.23;84.75;96239.75;5072346;28;20450;-76
2022/11/12 07:20:45;;;;;;;11.23;8.87;;;;;;;11.26;82.28;96233.47;5072322;28;20441;-76
2022/11/12 07:23:12;;;;;;;19.67;10.27;;;;;;;11.38;81.11;96232.66;5072478;28;20492;-76
2022/11/12 07:25:39;;;;;;;13.70;9.40;;;;;;;11.44;79.30;96232.25;5053445;28;20440;-76
2022/11/12 07:28:07;;;;;;;11.77;9.00;;;;;;;11.37;76.87;96234.44;5072250;28;20456;-76
2022/11/12 07:30:34;;;;;;;15.97;8.30;;;;;;;11.44;76.52;96242.75;5072277;28;20449;-76
2022/11/12 07:33:01;;;;;;;9.30;7.60;;;;;;;11.50;75.11;96242.34;5072238;28;20475;-76
2022/11/12 07:35:27;;;;;;;10.90;7.43;;;;;;;11.64;75.62;96246.69;5072005;28;20467;-76
2022/11/12 07:37:54;;;;;;;10.97;7.83;;;;;;;11.63;73.27;96245.84;5072722;28;20499;-76
2022/11/12 07:40:21;;;;;;;9.10;7.30;;;;;;;11.67;72.30;96247.34;5072282;28;20442;-76
2022/11/12 07:42:48;;;;;;;14.87;7.80;;;;;;;11.56;73.05;96254.22;5072269;28;20928;-76
2022/11/12 07:45:16;;;;;;;12.20;8.87;;;;;;;11.55;73.01;96245.50;5072212;28;20941;-76
2022/11/12 07:47:43;;;;;;;11.10;7.70;;;;;;;11.58;72.89;96244.50;5072114;28;20453;-76
2022/11/12 07:50:10;;;;;;;12.10;8.60;;;;;;;11.58;72.07;96247.13;5071865;28;20450;-76
2022/11/12 07:52:37;;;;;;;10.90;8.27;;;;;;;11.64;74.17;96247.53;5071920;28;20475;-76
2022/11/12 07:55:04;;;;;;;12.27;7.87;;;;;;;11.67;73.02;96246.50;5072239;28;20505;-77
2022/11/12 07:57:32;;;;;;;10.27;7.63;;;;;;;11.74;73.00;96253.00;5036698;28;20882;-76
2022/11/12 07:59:59;;;;;;;10.27;8.30;;;;;;;11.73;72.73;96254.81;5053235;28;20487;-76
2022/11/12 08:02:27;;;;;;;10.87;8.10;;;;;;;11.63;72.77;96256.38;5071455;28;20537;-76
2022/11/12 08:04:54;;;;;;;10.50;6.97;;;;;;;11.15;72.22;96260.44;5072020;28;20480;-76
2022/11/12 08:07:21;;;;;;;8.80;6.93;;;;;;;10.90;74.01;96262.97;5071695;28;20861;-76
2022/11/12 08:09:47;;;;;;;8.00;6.27;;;;;;;10.71;75.17;96258.91;5071743;28;20529;-76
2022/11/12 08:12:14;;;;;;;11.67;6.67;;;;;;;10.54;76.78;96261.75;5036664;28;20444;-76
2022/11/12 08:14:41;;;;;;;8.53;6.27;;;;;;;10.38;75.50;96258.38;5071789;28;20453;-76
2022/11/12 08:17:08;;;;;;;9.77;6.40;;;;;;;10.36;76.10;96253.22;5071565;28;20497;-76
2022/11/12 08:19:36;;;;;;;6.53;5.93;;;;;;;10.49;77.21;96264.66;5071854;28;20520;-76
2022/11/12 08:22:03;;;;;;;9.37;6.77;;;;;;;10.51;76.46;96273.28;5071630;28;20482;-76
2022/11/12 08:24:29;;;;;;;9.50;6.13;;;;;;;10.63;76.17;96268.19;5072571;28;20489;-75
2022/11/12 08:26:56;;;;;;;6.70;6.00;;;;;;;10.71;76.29;96263.31;5075766;28;20846;-76
2022/11/12 08:29:23;;;;;;;8.63;7.73;;;;;;;10.38;77.22;96263.63;5075640;28;20938;-76
2022/11/12 08:31:50;;;;;;;9.17;6.87;;;;;;;10.17;77.29;96268.41;5075867;28;20451;-76
2022/11/12 08:34:16;;;;;;;7.67;5.80;;;;;;;10.43;78.16;96274.69;5075622;28;20464;-76
2022/11/12 08:36:44;;;;;;;9.70;5.70;;;;;;;10.63;77.72;96260.31;5076116;28;20478;-76
2022/11/12 08:39:11;;;;;;;8.10;6.40;;;;;;;10.58;77.86;96271.09;5040119;28;20450;-76
2022/11/12 08:41:41;;;;;;;10.37;6.90;;;;;;;10.64;77.18;96268.09;5075536;28;20441;-76
2022/11/12 08:44:08;;;;;;;8.43;6.30;;;;;;;10.77;77.13;96273.44;5075195;28;20804;-76
2022/11/12 08:46:34;;;;;;;8.73;6.83;;;;;;;10.74;77.06;96271.84;5075585;28;20933;-76
2022/11/12 08:49:01;;;;;;;8.10;6.00;;;;;;;10.70;75.18;96270.34;5075692;28;20820;-76
2022/11/12 08:51:28;;;;;;;8.30;6.07;;;;;;;10.73;75.71;96275.41;5075395;28;20452;-76
2022/11/12 08:53:56;;;;;;;10.67;7.10;;;;;;;10.76;76.15;96271.75;5075220;28;20482;-76
2022/11/12 08:56:23;;;;;;;6.23;5.63;;;;;;;10.82;74.92;96269.56;5075018;28;20484;-76
2022/11/12 08:58:50;;;;;;;6.33;5.50;;;;;;;10.75;75.65;96270.91;5075171;28;20443;-76
2022/11/12 09:01:16;;;;;;;9.23;6.60;;;;;;;10.61;74.18;96265.66;5075331;28;20445;-76
2022/11/12 09:03:43;;;;;;;7.93;5.93;;;;;;;10.73;73.85;96261.44;5075124;28;20487;-76
2022/11/12 09:06:10;;;;;;;6.13;5.23;;;;;;;10.79;75.64;96267.13;5075125;28;20454;-76
2022/11/12 09:08:38;;;;;;;7.03;4.63;;;;;;;10.78;74.14;96264.59;5074949;28;20444;-76
2022/11/12 09:11:09;;;;;;;18.77;6.23;;;;;;;11.04;74.89;96250.66;5075066;28;20461;-76
2022/11/12 09:13:36;;;;;;;8.43;4.90;;;;;;;11.18;72.86;96255.84;5075026;28;20848;-76
2022/11/12 09:16:04;;;;;;;5.70;4.57;;;;;;;11.28;73.28;96258.72;5074990;28;20440;-77
2022/11/12 09:18:32;;;;;;;5.83;4.93;;;;;;;11.21;72.55;96256.56;5074976;28;20443;-76
2022/11/12 09:21:01;;;;;;;8.80;5.07;;;;;;;11.15;73.06;96266.53;5055859;28;20445;-76
2022/11/12 09:23:28;;;;;;;6.60;5.27;;;;;;;11.05;73.32;96260.22;5074683;28;20583;-76
2022/11/12 09:25:55;;;;;;;8.80;4.60;;;;;;;11.01;72.63;96263.13;5074725;28;21492;-76
2022/11/12 09:28:24;;;;;;;5.20;4.70;;;;;;;10.78;73.56;96264.59;5055877;28;20523;-76
2022/11/12 09:30:52;;;;;;;8.03;5.30;;;;;;;10.61;75.61;96264.81;5074662;28;20461;-76
2022/11/12 09:33:21;;;;;;;6.63;5.30;;;;;;;10.70;75.64;96251.97;5074841;28;20452;-76
2022/11/12 09:35:48;;;;;;;4.90;4.37;;;;;;;10.73;76.49;96258.81;5074007;28;20459;-76
2022/11/12 09:38:16;;;;;;;5.43;4.80;;;;;;;10.66;76.08;96262.75;5073956;28;20465;-76
2022/11/12 09:41:14;;;;;;;5.87;5.27;;;;;;;10.57;76.20;96264.16;5074689;28;20465;-76
2022/11/12 09:43:47;;;;;;;7.80;4.77;;;;;;;10.49;77.61;96261.19;5074400;28;20857;-75
2022/11/12 09:46:25;;;;;;;6.80;4.40;;;;;;;10.52;76.15;96264.47;5055557;28;20485;-75
2022/11/12 09:48:56;;;;;;;4.90;4.40;;;;;;;10.67;75.51;96252.13;5074256;28;20447;-76
2022/11/12 09:51:27;;;;;;;3.70;3.37;;;;;;;10.51;73.80;96260.16;5074214;28;20503;-75
2022/11/12 09:53:56;;;;;;;4.43;4.03;;;;;;;10.62;73.83;96263.88;5073892;28;20974;-76
2022/11/12 09:56:24;;;;;;;5.80;4.70;;;;;;;10.73;74.11;96259.66;5055366;28;20475;-75
2022/11/12 09:58:54;;;;;;;6.83;5.33;;;;;;;10.94;73.34;96264.44;5038682;28;20454;-75
2022/11/12 10:01:30;;;;;;;6.80;5.10;;;;;;;11.00;72.56;96262.31;5073918;28;20554;-75
2022/11/12 10:04:14;;;;;;;5.43;4.20;;;;;;;11.12;72.01;96261.50;5074009;28;20491;-75
2022/11/12 10:06:52;;;;;;;6.70;4.60;;;;;;;11.25;71.79;96265.94;5073863;28;20452;-76
2022/11/12 10:09:23;;;;;;;4.50;4.10;;;;;;;11.30;71.89;96263.88;5073785;28;20811;-76
2022/11/12 10:16:41;;;;;;;6.00;4.90;;;;;;;11.63;72.21;96261.63;5073738;28;20586;-75
2022/11/12 10:17:53;;;;;;;5.80;5.20;;;;;;;11.81;72.11;96256.94;5073518;28;20935;-76
2022/11/12 10:20:25;;;;;;;7.10;5.50;;;;;;;11.85;71.90;96250.50;5073497;28;21005;-76
2022/11/12 10:23:06;;;;;;;7.20;5.57;;;;;;;11.92;71.95;96262.31;5073577;28;20491;-76
2022/11/12 10:25:35;;;;;;;7.47;6.07;;;;;;;11.91;72.56;96262.44;5073502;28;20448;-75
2022/11/12 10:28:14;;;;;;;8.67;6.10;;;;;;;11.88;72.64;96250.34;5073441;28;20834;-76
2022/11/12 10:30:43;;;;;;;6.80;4.90;;;;;;;11.90;72.35;96264.22;5073541;28;20821;-75
2022/11/12 10:33:14;;;;;;;4.87;4.17;;;;;;;11.88;71.88;96262.66;5073696;28;20997;-75
2022/11/12 10:35:41;;;;;;;7.10;5.73;;;;;;;11.87;72.96;96258.34;5054362;28;21020;-75
2022/11/12 10:38:14;;;;;;;5.10;4.63;;;;;;;11.85;72.94;96262.81;5073413;28;20452;-74
2022/11/12 10:40:41;;;;;;;6.07;5.20;;;;;;;11.76;73.64;96259.00;5073040;28;20452;-76
2022/11/12 10:43:22;;;;;;;5.37;4.80;;;;;;;11.72;73.44;96258.38;5038026;28;20506;-76
2022/11/12 10:45:51;;;;;;;4.80;4.40;;;;;;;11.74;73.84;96263.53;5072972;28;20451;-75
2022/11/12 10:48:32;;;;;;;5.47;4.77;;;;;;;11.77;74.61;96264.16;5073143;28;20463;-76
2022/11/12 10:51:00;;;;;;;8.60;5.27;;;;;;;11.74;75.69;96258.28;5072736;28;20476;-76
2022/11/12 10:53:33;;;;;;;6.43;5.00;;;;;;;11.53;76.21;96257.91;5073191;28;20548;-76
2022/11/12 10:56:01;;;;;;;5.33;4.83;;;;;;;11.34;76.25;96260.09;5073064;28;20459;-76
2022/11/12 10:58:28;;;;;;;7.37;4.60;;;;;;;11.32;74.58;96259.34;5072945;28;20471;-76
2022/11/12 11:01:01;;;;;;;5.30;4.80;;;;;;;11.18;76.05;96253.19;5072816;28;20474;-75
2022/11/12 11:03:33;;;;;;;10.90;4.50;;;;;;;11.14;76.42;96253.50;5072696;28;20491;-75
2022/11/12 11:06:03;;;;;;;8.00;4.30;;;;;;;11.21;76.07;96253.94;5072687;28;20455;-75
2022/11/12 11:08:36;;;;;;;6.50;5.17;;;;;;;10.99;76.87;96255.38;5072969;28;20456;-75
2022/11/12 11:11:23;;;;;;;4.30;3.80;;;;;;;10.72;76.49;96255.34;5053675;28;20459;-75
2022/11/12 11:13:50;;;;;;;6.03;3.97;;;;;;;10.97;76.52;96246.72;5072522;28;20471;-75
2022/11/12 11:16:20;;;;;;;5.10;4.27;;;;;;;10.66;75.95;96247.84;5072674;28;20447;-75
2022/11/12 11:18:52;;;;;;;6.20;4.10;;;;;;;10.76;77.84;96240.22;5072672;28;20454;-75
2022/11/12 11:21:35;;;;;;;4.00;3.60;;;;;;;10.79;77.22;96243.50;5072323;28;20447;-75
2022/11/12 11:24:17;;;;;;;5.90;4.17;;;;;;;10.90;76.17;96247.22;5072807;28;20487;-75
2022/11/12 11:26:55;;;;;;;4.40;3.70;;;;;;;10.83;75.67;96252.03;5072261;28;20847;-76
2022/11/12 11:29:44;;;;;;;4.50;3.90;;;;;;;10.68;76.91;96245.09;5072540;28;20542;-76
2022/11/12 11:32:30;;;;;;;10.13;4.80;;;;;;;10.89;76.35;96246.38;5072181;28;20930;-75
2022/11/12 11:35:09;;;;;;;3.70;3.20;;;;;;;10.67;76.33;96246.03;5072318;28;20577;-76
2022/11/12 11:37:46;;;;;;;3.67;3.30;;;;;;;10.69;77.13;96250.25;5072365;28;20447;-75
2022/11/12 11:40:24;;;;;;;3.63;3.33;;;;;;;10.71;77.36;96243.16;5072125;28;20484;-75
2022/11/12 11:43:05;;;;;;;4.20;3.67;;;;;;;10.72;78.09;96244.00;5072111;28;20539;-75
2022/11/12 11:45:51;;;;;;;5.30;3.83;;;;;;;10.77;77.57;96247.16;5071992;28;20509;-75
2022/11/12 11:48:44;;;;;;;13.30;4.70;;;;;;;10.78;76.54;96246.22;5072141;28;20486;-76
2022/11/12 11:51:26;;;;;;;7.03;3.97;;;;;;;10.63;76.58;96249.81;5071969;28;20443;-75
2022/11/12 11:54:02;;;;;;;8.93;4.63;;;;;;;10.58;77.23;96242.22;5071741;28;20479;-75